Time;durP1;ratioP1;P1;durP2;ratioP2;P2;SDS_P1;SDS_P2;PMS_P1;PMS_P2;Temp;Humidity;BMP_temperature;BMP_pressure;BME280_temperature;BME280_humidity;BME280_pressure;Samples;Min_cycle;Max_cycle;Signal;HPM_P1;HPM_P2
2021/12/18 00:01:18;;;;;;;13.40;8.25;;;;;;;0.35;86.59;93625.25;5081132;28;20525;-41
2021/12/18 00:03:44;;;;;;;13.55;8.07;;;;;;;0.21;86.11;93601.69;5081306;28;20039;-40
2021/12/18 00:06:10;;;;;;;16.67;8.75;;;;;;;0.51;85.46;93626.66;5083490;28;20115;-41
2021/12/18 00:08:37;;;;;;;17.85;7.68;;;;;;;0.52;84.41;93623.44;5080965;28;20037;-41
2021/12/18 00:11:03;;;;;;;11.52;7.10;;;;;;;0.47;83.88;93620.69;5087341;28;20070;-41
2021/12/18 00:13:28;;;;;;;12.45;7.53;;;;;;;0.45;84.30;93620.44;5085152;28;20036;-40
2021/12/18 00:15:54;;;;;;;12.88;6.70;;;;;;;0.47;82.90;93623.41;5097206;28;20501;-41
2021/12/18 00:18:20;;;;;;;12.93;6.10;;;;;;;0.56;82.32;93621.25;5077784;28;20024;-41
2021/12/18 00:20:46;;;;;;;12.80;8.00;;;;;;;0.50;81.36;93614.28;5088106;28;20024;-41
2021/12/18 00:23:11;;;;;;;10.88;5.70;;;;;;;0.52;82.18;93618.03;5077577;28;20025;-41
2021/12/18 00:25:37;;;;;;;10.63;6.03;;;;;;;0.39;81.96;93606.06;5079132;28;20016;-40
2021/12/18 00:28:03;;;;;;;13.82;7.03;;;;;;;0.44;81.57;93616.22;5082659;28;20100;-40
2021/12/18 00:30:28;;;;;;;11.98;6.68;;;;;;;0.43;81.20;93625.59;5089643;28;20035;-40
2021/12/18 00:32:54;;;;;;;8.77;5.70;;;;;;;0.18;81.30;93607.31;5085659;28;20020;-39
2021/12/18 00:35:20;;;;;;;9.35;5.70;;;;;;;0.27;81.56;93616.06;5075894;28;20017;-40
2021/12/18 00:37:46;;;;;;;9.63;6.00;;;;;;;0.37;81.89;93622.09;5076437;28;20508;-41
2021/12/18 00:40:19;;;;;;;10.68;6.03;;;;;;;0.36;81.06;93626.03;5082497;28;20028;-40
2021/12/18 00:42:48;;;;;;;11.38;6.95;;;;;;;0.30;81.34;93623.25;5087034;28;20028;-42
2021/12/18 00:45:14;;;;;;;;;;;;;;;0.29;81.02;93627.19;5075465;28;20028;-42
2021/12/18 00:47:41;;;;;;;13.05;5.75;;;;;;;0.32;81.33;93623.53;5076458;28;20007;-41
2021/12/18 00:50:15;;;;;;;12.07;6.47;;;;;;;0.40;80.78;93624.59;5083625;28;20035;-42
2021/12/18 00:52:41;;;;;;;11.23;6.88;;;;;;;0.49;81.54;93635.28;5085718;28;20108;-42
2021/12/18 00:55:07;;;;;;;13.38;6.90;;;;;;;0.53;80.80;93626.91;5075091;28;20040;-41
2021/12/18 00:57:33;;;;;;;15.48;6.53;;;;;;;0.42;80.19;93613.22;5086623;28;20024;-41
2021/12/18 01:00:02;;;;;;;11.25;6.60;;;;;;;0.51;79.64;93632.09;5082922;28;20020;-41
2021/12/18 01:02:28;;;;;;;10.38;6.53;;;;;;;0.47;80.16;93631.56;5079418;28;20028;-42
2021/12/18 01:04:54;;;;;;;9.55;5.95;;;;;;;0.53;80.25;93638.53;5076910;28;20036;-41
2021/12/18 01:07:20;;;;;;;10.48;6.20;;;;;;;0.54;80.62;93626.44;5084532;28;20049;-41
2021/12/18 01:10:20;;;;;;;9.07;5.97;;;;;;;0.55;80.70;93638.81;5088894;28;20040;-41
2021/12/18 01:12:49;;;;;;;10.95;5.72;;;;;;;0.58;79.98;93637.09;5075087;28;20046;-41
2021/12/18 01:15:24;;;;;;;10.57;6.07;;;;;;;0.52;80.11;93628.88;5077893;28;20501;-41
2021/12/18 01:23:21;;;;;;;13.00;7.57;;;;;;;0.41;80.05;93620.63;5080665;28;20038;-41
2021/12/18 01:25:48;;;;;;;17.75;9.13;;;;;;;0.36;80.01;93618.63;5084479;28;20016;-40
2021/12/18 01:28:13;;;;;;;15.70;9.02;;;;;;;0.32;80.49;93617.34;5086941;28;20421;-41
2021/12/18 01:30:39;;;;;;;15.90;7.30;;;;;;;0.28;80.41;93619.53;5082923;28;20033;-41
2021/12/18 01:33:04;;;;;;;11.27;6.50;;;;;;;0.31;80.12;93613.13;5087532;28;20031;-40
2021/12/18 01:35:42;;;;;;;9.35;6.90;;;;;;;0.13;80.41;93611.44;5080964;28;20016;-41
2021/12/18 01:38:09;;;;;;;10.90;6.83;;;;;;;0.14;80.83;93621.09;5074245;28;20645;-40
2021/12/18 01:40:35;;;;;;;11.63;7.40;;;;;;;0.16;80.93;93617.91;5091123;28;20664;-40
2021/12/18 01:44:15;;;;;;;12.05;6.68;;;;;;;0.19;81.28;93617.72;5086242;28;20020;-40
2021/12/18 01:53:51;;;;;;;13.90;9.38;;;;;;;0.25;81.42;93613.06;5081546;28;20433;-39
2021/12/18 01:56:17;;;;;;;14.15;9.35;;;;;;;0.25;81.47;93618.50;5079173;28;20044;-39
2021/12/18 01:58:46;;;;;;;13.85;8.68;;;;;;;0.33;81.09;93610.66;5083610;28;20504;-39
2021/12/18 02:01:12;;;;;;;18.63;9.05;;;;;;;0.36;81.57;93610.47;5085348;28;20394;-39
2021/12/18 02:03:38;;;;;;;18.10;9.10;;;;;;;0.46;81.67;93608.34;5085932;28;20028;-39
2021/12/18 02:06:04;;;;;;;17.92;9.50;;;;;;;0.48;81.31;93603.91;5088646;28;20027;-39
2021/12/18 02:08:33;;;;;;;14.63;8.73;;;;;;;0.46;81.43;93613.75;5083025;28;20036;-39
2021/12/18 02:11:13;;;;;;;17.42;8.82;;;;;;;0.50;80.69;93611.56;5081798;28;20114;-39
2021/12/18 02:21:35;;;;;;;12.70;6.78;;;;;;;0.35;80.22;93576.38;5083226;28;20093;-39
2021/12/18 02:24:01;;;;;;;12.45;6.90;;;;;;;0.53;79.72;93605.94;5080560;28;20066;-38
2021/12/18 02:26:26;;;;;;;14.60;8.55;;;;;;;0.46;80.00;93611.03;5076293;28;20543;-39
2021/12/18 02:28:54;;;;;;;12.20;7.78;;;;;;;0.43;80.10;93610.06;5084662;28;20024;-39
2021/12/18 02:31:20;;;;;;;10.35;6.07;;;;;;;0.40;79.80;93610.25;5081689;28;20019;-39
2021/12/18 02:33:46;;;;;;;11.93;7.53;;;;;;;0.38;80.14;93602.59;5076574;28;20088;-38
2021/12/18 02:36:21;;;;;;;8.68;6.55;;;;;;;0.45;79.67;93604.13;5088717;28;20024;-38
2021/12/18 02:41:41;;;;;;;8.15;5.75;;;;;;;0.36;81.12;93609.72;5082267;28;20024;-39
2021/12/18 02:44:10;;;;;;;12.10;7.45;;;;;;;0.49;79.93;93610.84;5081769;28;20024;-39
2021/12/18 02:46:37;;;;;;;15.27;7.68;;;;;;;0.51;79.05;93621.97;5088656;28;20504;-38
2021/12/18 02:49:09;;;;;;;16.48;9.50;;;;;;;0.43;79.28;93615.50;5080703;28;20498;-38
2021/12/18 02:51:34;;;;;;;13.10;6.50;;;;;;;0.29;80.01;93621.00;5088617;28;20020;-38
2021/12/18 02:54:00;;;;;;;10.43;6.03;;;;;;;0.30;80.69;93619.78;5091616;28;20032;-38
2021/12/18 02:56:25;;;;;;;12.80;6.35;;;;;;;0.36;80.54;93617.88;5083219;28;20020;-39
2021/12/18 02:58:54;;;;;;;16.20;7.80;;;;;;;0.36;80.82;93613.19;5087679;28;20111;-38
2021/12/18 03:01:24;;;;;;;16.93;8.10;;;;;;;0.37;80.62;93619.38;5089881;28;20133;-38
2021/12/18 03:03:51;;;;;;;9.55;6.88;;;;;;;0.44;79.99;93618.94;5085069;28;20027;-38
2021/12/18 03:25:09;;;;;;;9.60;5.72;;;;;;;0.48;80.13;93633.03;5081955;28;20035;-38
2021/12/18 03:27:35;;;;;;;9.52;5.07;;;;;;;0.47;80.46;93631.56;5082353;28;20078;-38
2021/12/18 03:30:00;;;;;;;8.63;5.90;;;;;;;0.42;80.19;93637.69;5082427;28;20520;-38
2021/12/18 03:32:26;;;;;;;10.85;5.55;;;;;;;0.38;80.01;93645.28;5082542;28;20512;-38
2021/12/18 03:34:52;;;;;;;14.18;6.55;;;;;;;0.34;80.33;93640.09;5082198;28;20388;-38
2021/12/18 03:37:18;;;;;;;10.90;6.35;;;;;;;0.30;79.51;93622.50;5082629;28;20094;-38
2021/12/18 03:39:45;;;;;;;17.30;8.73;;;;;;;0.30;79.75;93641.50;5085438;28;20024;-38
2021/12/18 03:42:10;;;;;;;10.18;5.55;;;;;;;0.28;79.68;93643.97;5086027;28;20047;-38
2021/12/18 03:44:36;;;;;;;11.02;6.82;;;;;;;0.39;79.49;93642.09;5082654;28;20028;-38
2021/12/18 03:47:02;;;;;;;14.65;6.43;;;;;;;0.39;79.22;93652.94;5083829;28;20031;-38
2021/12/18 03:49:28;;;;;;;13.55;7.50;;;;;;;0.40;79.55;93646.31;5083413;28;20048;-38
2021/12/18 03:51:54;;;;;;;13.25;7.75;;;;;;;0.35;79.29;93644.28;5083419;28;20048;-38
2021/12/18 03:54:20;;;;;;;21.33;9.77;;;;;;;0.38;79.39;93648.75;5084379;28;20048;-39
2021/12/18 03:56:45;;;;;;;55.90;18.80;;;;;;;0.37;79.50;93649.25;5083548;28;20070;-39
2021/12/18 03:59:10;;;;;;;47.17;18.27;;;;;;;0.36;79.12;93651.22;5082009;28;20020;-38
2021/12/18 04:01:36;;;;;;;27.67;12.27;;;;;;;0.29;78.88;93648.16;5082744;28;20032;-38
2021/12/18 04:04:02;;;;;;;48.15;22.65;;;;;;;0.21;79.05;93647.09;5083501;28;20052;-38
2021/12/18 04:06:31;;;;;;;26.30;12.35;;;;;;;0.14;79.59;93647.50;5082338;28;20035;-38
2021/12/18 04:08:57;;;;;;;18.35;8.75;;;;;;;0.13;80.26;93651.44;5085262;28;20111;-38
2021/12/18 04:11:23;;;;;;;27.50;13.20;;;;;;;0.16;80.31;93647.75;5083820;28;20028;-38
2021/12/18 04:13:48;;;;;;;23.67;12.38;;;;;;;0.17;80.42;93649.28;5080814;28;20024;-38
2021/12/18 04:16:14;;;;;;;15.45;12.10;;;;;;;0.03;80.62;93653.53;5083422;28;20032;-38
2021/12/18 04:18:41;;;;;;;15.95;11.15;;;;;;;0.11;80.30;93651.91;5084418;28;20012;-38
2021/12/18 04:21:07;;;;;;;13.88;8.20;;;;;;;0.11;81.02;93656.59;5084358;28;20153;-38
2021/12/18 04:23:33;;;;;;;13.95;9.05;;;;;;;0.17;81.12;93657.41;5083109;28;20032;-38
2021/12/18 04:25:59;;;;;;;13.77;8.23;;;;;;;0.09;81.14;93659.78;5081431;28;20043;-38
2021/12/18 04:28:25;;;;;;;10.75;7.35;;;;;;;0.11;81.34;93664.75;5082979;28;20036;-38
2021/12/18 04:30:51;;;;;;;13.80;8.35;;;;;;;0.08;81.78;93669.16;5083725;28;20471;-38
2021/12/18 04:33:16;;;;;;;9.35;6.88;;;;;;;0.08;81.35;93668.41;5081332;28;20115;-38
2021/12/18 04:35:42;;;;;;;9.90;7.10;;;;;;;0.10;81.55;93672.16;5081246;28;20042;-38
2021/12/18 04:38:08;;;;;;;11.25;7.93;;;;;;;-0.05;81.64;93653.22;5082690;28;20313;-38
2021/12/18 04:40:34;;;;;;;13.27;6.97;;;;;;;0.03;81.25;93669.84;5080719;28;20113;-38
2021/12/18 04:43:06;;;;;;;9.68;6.75;;;;;;;-0.08;81.58;93643.31;5081277;28;20566;-38
2021/12/18 04:45:34;;;;;;;7.80;5.20;;;;;;;0.17;81.32;93673.69;5083049;28;20047;-38
2021/12/18 04:48:00;;;;;;;7.25;4.85;;;;;;;0.12;80.86;93668.94;5080886;28;20501;-38
2021/12/18 04:50:25;;;;;;;9.05;5.85;;;;;;;0.06;80.82;93668.13;5079359;28;20038;-38
2021/12/18 04:52:51;;;;;;;12.02;6.20;;;;;;;0.10;81.02;93680.28;5083817;28;20068;-39
2021/12/18 04:55:17;;;;;;;8.75;4.78;;;;;;;0.09;81.43;93684.22;5082173;28;20040;-39
2021/12/18 04:57:43;;;;;;;7.38;5.07;;;;;;;-0.14;80.98;93660.75;5083193;28;20037;-39
2021/12/18 05:00:12;;;;;;;8.75;4.47;;;;;;;0.00;81.29;93701.38;5082831;28;20032;-39
2021/12/18 05:02:41;;;;;;;11.98;6.65;;;;;;;0.01;82.44;93707.56;5080779;28;20055;-39
2021/12/18 05:05:09;;;;;;;11.60;8.05;;;;;;;0.05;83.07;93708.09;5080973;28;20040;-39
2021/12/18 05:07:34;;;;;;;16.20;10.45;;;;;;;0.16;82.46;93715.63;5080129;28;20035;-39
2021/12/18 05:10:00;;;;;;;14.40;8.50;;;;;;;0.06;82.91;93717.75;5080035;28;20107;-39
2021/12/18 05:12:26;;;;;;;8.32;6.03;;;;;;;0.01;82.95;93718.41;5078997;28;20028;-39
2021/12/18 05:14:52;;;;;;;7.88;5.35;;;;;;;0.10;82.82;93729.16;5084137;28;20036;-39
2021/12/18 05:17:17;;;;;;;9.88;5.45;;;;;;;0.07;82.74;93730.09;5079713;28;20019;-39
2021/12/18 05:19:43;;;;;;;13.52;7.72;;;;;;;-0.02;82.69;93722.81;5082698;28;20108;-38
2021/12/18 05:22:09;;;;;;;6.68;4.53;;;;;;;-0.17;82.73;93724.84;5078449;28;20034;-38
2021/12/18 05:24:35;;;;;;;10.98;4.78;;;;;;;-0.05;82.80;93737.34;5080573;28;20033;-38
2021/12/18 05:27:01;;;;;;;7.70;5.25;;;;;;;-0.08;82.44;93741.00;5081346;28;20032;-38
2021/12/18 05:29:26;;;;;;;9.15;5.22;;;;;;;-0.08;82.06;93742.97;5082015;28;20059;-38
2021/12/18 05:31:52;;;;;;;9.63;6.07;;;;;;;-0.05;82.00;93745.50;5080759;28;20031;-38
2021/12/18 05:34:21;;;;;;;19.02;8.45;;;;;;;-0.09;82.02;93750.34;5080459;28;20024;-38
2021/12/18 05:37:45;;;;;;;13.65;7.28;;;;;;;-0.16;81.76;93731.78;5079622;28;20093;-38
2021/12/18 05:39:34;;;;;;;13.23;9.30;;;;;;;-0.02;80.91;93752.69;5075979;28;20134;-38
2021/12/18 05:42:00;;;;;;;17.08;7.70;;;;;;;-0.06;81.58;93748.66;5082983;28;20103;-39
2021/12/18 05:44:26;;;;;;;17.27;8.43;;;;;;;-0.04;81.26;93751.66;5081540;28;20420;-38
2021/12/18 05:46:52;;;;;;;13.30;8.20;;;;;;;0.05;81.05;93753.50;5080077;28;20497;-38
2021/12/18 05:49:18;;;;;;;17.63;7.88;;;;;;;-0.05;81.07;93752.88;5080733;28;20043;-38
2021/12/18 05:51:44;;;;;;;13.05;8.85;;;;;;;-0.04;81.13;93757.09;5081423;28;20086;-39
2021/12/18 05:54:11;;;;;;;19.65;10.75;;;;;;;-0.07;81.25;93760.75;5077284;28;20094;-38
2021/12/18 05:56:37;;;;;;;16.17;8.32;;;;;;;-0.05;80.92;93759.06;5081007;28;20060;-38
2021/12/18 05:59:03;;;;;;;8.90;5.75;;;;;;;-0.10;81.41;93762.44;5082709;28;20132;-38
2021/12/18 06:01:29;;;;;;;9.10;4.88;;;;;;;-0.08;81.43;93759.25;5078425;28;20715;-38
2021/12/18 06:03:55;;;;;;;6.97;4.72;;;;;;;0.03;80.88;93764.84;5082116;28;20028;-38
2021/12/18 06:06:21;;;;;;;7.10;4.63;;;;;;;-0.01;81.26;93769.72;5080256;28;20107;-38
2021/12/18 06:08:47;;;;;;;7.55;4.78;;;;;;;-0.01;81.59;93767.75;5079674;28;20043;-38
2021/12/18 06:11:15;;;;;;;6.18;4.05;;;;;;;0.09;81.43;93771.06;5080628;28;20016;-37
2021/12/18 06:13:46;;;;;;;7.38;5.32;;;;;;;0.07;81.61;93775.47;5079756;28;20028;-37
2021/12/18 06:16:12;;;;;;;7.03;4.40;;;;;;;0.08;81.03;93777.00;5082348;28;20040;-37
2021/12/18 06:18:40;;;;;;;6.10;3.53;;;;;;;0.02;81.35;93779.63;5082788;28;20021;-37
2021/12/18 06:21:06;;;;;;;8.38;4.90;;;;;;;0.11;81.33;93784.19;5082897;28;20068;-37
2021/12/18 06:23:32;;;;;;;9.98;4.90;;;;;;;0.09;80.77;93789.34;5080695;28;20077;-37
2021/12/18 06:25:58;;;;;;;4.90;4.30;;;;;;;0.07;80.39;93768.09;5081673;28;20066;-38
2021/12/18 06:28:23;;;;;;;7.22;4.10;;;;;;;0.15;81.09;93782.03;5081542;28;20056;-38
2021/12/18 06:30:49;;;;;;;6.05;4.50;;;;;;;0.23;81.07;93791.25;5083533;28;20568;-37
2021/12/18 06:33:15;;;;;;;6.38;3.88;;;;;;;0.18;81.12;93789.22;5080933;28;20034;-37
2021/12/18 06:35:41;;;;;;;9.00;4.40;;;;;;;-0.05;80.77;93755.59;5084954;28;20031;-38
2021/12/18 06:38:07;;;;;;;8.35;5.55;;;;;;;0.25;81.01;93797.72;5084334;28;20399;-38
2021/12/18 06:40:33;;;;;;;10.07;5.90;;;;;;;0.17;81.28;93799.34;5086550;28;20032;-38
2021/12/18 06:42:59;;;;;;;19.92;10.98;;;;;;;0.20;81.97;93800.34;5085784;28;20077;-38
2021/12/18 06:45:24;;;;;;;21.33;10.45;;;;;;;0.30;82.17;93802.47;5090499;28;20032;-38
2021/12/18 06:47:50;;;;;;;14.90;8.68;;;;;;;0.37;81.61;93804.78;5086942;28;20497;-38
2021/12/18 06:50:16;;;;;;;7.80;5.28;;;;;;;0.42;80.57;93809.53;5086866;28;20031;-38
2021/12/18 06:52:41;;;;;;;15.10;7.65;;;;;;;0.39;80.71;93805.03;5084783;28;20031;-38
2021/12/18 06:55:07;;;;;;;25.38;13.55;;;;;;;0.41;80.39;93804.59;5091003;28;20122;-38
2021/12/18 06:57:33;;;;;;;12.32;7.57;;;;;;;0.41;80.94;93807.31;5085177;28;20024;-37
2021/12/18 06:59:58;;;;;;;46.85;22.45;;;;;;;0.40;81.11;93806.56;5084034;28;20039;-37
2021/12/18 07:02:24;;;;;;;30.40;18.17;;;;;;;0.46;80.98;93815.50;5085089;28;20085;-38
2021/12/18 07:04:51;;;;;;;28.08;17.70;;;;;;;0.53;80.90;93809.69;5089612;28;20599;-38
2021/12/18 07:07:18;;;;;;;15.25;10.77;;;;;;;0.60;80.76;93813.97;5086543;28;20040;-37
2021/12/18 07:09:44;;;;;;;13.38;8.73;;;;;;;0.58;80.88;93822.59;5085306;28;20496;-37
2021/12/18 07:12:10;;;;;;;12.05;6.80;;;;;;;0.63;79.96;93824.63;5084921;28;20032;-38
2021/12/18 07:14:36;;;;;;;7.70;5.65;;;;;;;0.64;80.19;93828.09;5084842;28;20036;-37
2021/12/18 07:17:04;;;;;;;14.68;8.07;;;;;;;0.65;80.14;93827.59;5093140;28;20512;-37
2021/12/18 07:19:29;;;;;;;9.13;6.00;;;;;;;0.69;79.95;93835.56;5090217;28;20036;-37
2021/12/18 07:21:55;;;;;;;13.52;7.05;;;;;;;0.71;80.40;93835.84;5091396;28;20054;-37
2021/12/18 07:24:20;;;;;;;14.20;8.15;;;;;;;0.72;80.40;93838.06;5089477;28;20082;-37
2021/12/18 07:26:46;;;;;;;5.03;4.03;;;;;;;0.72;79.50;93842.75;5085820;28;20036;-37
2021/12/18 07:29:12;;;;;;;7.40;5.90;;;;;;;0.71;79.66;93847.44;5083398;28;20020;-37
2021/12/18 07:31:37;;;;;;;7.18;5.30;;;;;;;0.74;79.36;93851.94;5083621;28;20035;-37
2021/12/18 07:34:03;;;;;;;7.85;5.32;;;;;;;0.74;79.83;93853.88;5083212;28;20038;-37
2021/12/18 07:36:29;;;;;;;6.90;5.20;;;;;;;0.58;79.81;93857.91;5085869;28;20027;-37
2021/12/18 07:38:54;;;;;;;7.25;4.53;;;;;;;0.64;80.34;93855.25;5087040;28;20063;-37
2021/12/18 07:41:20;;;;;;;7.13;5.00;;;;;;;0.59;81.04;93856.69;5083732;28;20032;-37
2021/12/18 07:43:45;;;;;;;10.45;7.03;;;;;;;0.59;80.10;93869.50;5082611;28;20130;-37
2021/12/18 07:46:11;;;;;;;7.32;5.25;;;;;;;0.58;80.67;93859.88;5085517;28;20093;-37
2021/12/18 07:48:37;;;;;;;11.23;7.18;;;;;;;0.56;80.81;93862.31;5079602;28;20032;-37
2021/12/18 07:51:02;;;;;;;17.40;6.75;;;;;;;0.65;81.12;93859.47;5078880;28;20475;-37
2021/12/18 07:53:28;;;;;;;7.72;5.80;;;;;;;0.59;80.31;93867.53;5080764;28;20059;-37
2021/12/18 07:55:54;;;;;;;10.10;5.95;;;;;;;0.52;79.76;93878.81;5081711;28;20039;-37
2021/12/18 07:58:19;;;;;;;17.40;8.15;;;;;;;0.44;79.74;93876.97;5082231;28;20065;-37
2021/12/18 08:00:45;;;;;;;12.32;7.15;;;;;;;0.59;80.00;93891.25;5084221;28;20089;-37
2021/12/18 08:03:11;;;;;;;13.23;7.00;;;;;;;0.60;78.94;93887.31;5084996;28;20503;-37
2021/12/18 08:05:37;;;;;;;9.82;5.47;;;;;;;0.53;78.77;93885.00;5077689;28;20473;-36
2021/12/18 08:08:02;;;;;;;9.40;6.47;;;;;;;0.60;79.60;93896.22;5079296;28;20934;-37
2021/12/18 08:10:28;;;;;;;11.93;6.28;;;;;;;0.65;79.13;93898.25;5080139;28;20028;-37
2021/12/18 08:12:53;;;;;;;14.27;6.15;;;;;;;0.71;78.03;93898.34;5079709;28;20028;-37
2021/12/18 08:15:19;;;;;;;11.25;7.63;;;;;;;0.69;78.65;93900.78;5079276;28;21050;-37
2021/12/18 08:17:45;;;;;;;18.08;10.50;;;;;;;0.74;79.73;93894.66;5079958;28;20060;-37
2021/12/18 08:20:10;;;;;;;22.33;9.40;;;;;;;0.77;79.62;93907.31;5077094;28;20069;-37
2021/12/18 08:22:36;;;;;;;13.18;9.10;;;;;;;0.70;78.98;93894.09;5074179;28;20493;-37
2021/12/18 08:25:03;;;;;;;10.90;7.40;;;;;;;0.85;78.80;93902.94;5073384;28;20032;-41
2021/12/18 08:27:29;;;;;;;8.68;6.78;;;;;;;0.86;79.12;93906.44;5076784;28;20047;-41
2021/12/18 08:29:55;;;;;;;9.43;5.60;;;;;;;0.98;78.60;93906.09;5074998;28;20024;-41
2021/12/18 08:32:22;;;;;;;7.75;4.90;;;;;;;1.05;77.93;93908.41;5075204;28;20250;-41
2021/12/18 08:34:47;;;;;;;7.75;5.90;;;;;;;1.07;77.92;93905.19;5076089;28;20107;-41
2021/12/18 08:37:13;;;;;;;9.50;4.90;;;;;;;1.13;77.51;93909.47;5073688;28;20114;-41
2021/12/18 08:39:39;;;;;;;14.90;7.78;;;;;;;1.11;77.28;93911.19;5076871;28;20064;-41
2021/12/18 08:42:06;;;;;;;16.40;10.32;;;;;;;1.18;77.06;93911.53;5075075;28;20115;-41
2021/12/18 08:44:33;;;;;;;16.83;9.20;;;;;;;1.23;77.02;93913.56;5077440;28;20036;-41
2021/12/18 08:46:59;;;;;;;15.32;10.35;;;;;;;1.16;76.50;93919.41;5078221;28;20035;-41
2021/12/18 08:49:25;;;;;;;14.00;8.88;;;;;;;1.19;76.96;93918.44;5076512;28;20044;-41
2021/12/18 08:51:52;;;;;;;16.80;9.45;;;;;;;1.31;76.58;93913.88;5075349;28;20036;-41
2021/12/18 08:54:17;;;;;;;40.72;25.83;;;;;;;1.52;76.14;93907.19;5075269;28;20052;-41
2021/12/18 08:56:43;;;;;;;25.45;15.77;;;;;;;1.69;75.86;93908.09;5075792;28;20043;-42
2021/12/18 08:59:08;;;;;;;15.55;9.93;;;;;;;1.82;75.36;93908.47;5076627;28;20056;-42
2021/12/18 09:01:34;;;;;;;15.02;8.35;;;;;;;1.74;75.58;93912.09;5073391;28;20455;-42
2021/12/18 09:04:00;;;;;;;10.10;7.78;;;;;;;1.85;75.22;93912.97;5075558;28;20036;-41
2021/12/18 09:06:25;;;;;;;9.43;6.00;;;;;;;1.85;74.86;93909.50;5076732;28;20058;-42
2021/12/18 09:08:52;;;;;;;11.88;8.13;;;;;;;1.73;75.04;93892.31;5076631;28;20114;-41
2021/12/18 09:11:18;;;;;;;16.10;10.98;;;;;;;2.04;76.04;93916.09;5077130;28;20024;-42
2021/12/18 09:13:44;;;;;;;7.63;5.35;;;;;;;1.98;74.89;93905.16;5077851;28;20406;-42
2021/12/18 09:16:10;;;;;;;11.60;7.57;;;;;;;2.12;74.81;93909.72;5076275;28;20572;-42
2021/12/18 09:18:35;;;;;;;10.88;7.47;;;;;;;2.26;74.01;93903.41;5074781;28;20029;-42
2021/12/18 09:21:01;;;;;;;8.63;7.10;;;;;;;2.14;74.69;93907.25;5074126;28;20501;-42
2021/12/18 09:23:29;;;;;;;9.60;6.53;;;;;;;2.14;74.19;93918.16;5076859;28;20036;-41
2021/12/18 09:25:55;;;;;;;11.17;7.27;;;;;;;2.12;74.58;93909.72;5075153;28;20035;-40
2021/12/18 09:28:21;;;;;;;11.90;7.55;;;;;;;2.06;74.98;93908.94;5076726;28;20028;-40
2021/12/18 09:30:47;;;;;;;11.90;7.90;;;;;;;2.07;75.23;93898.78;5076104;28;20566;-40
2021/12/18 09:33:15;;;;;;;19.27;10.15;;;;;;;1.97;75.13;93909.09;5074522;28;20342;-46
2021/12/18 09:35:42;;;;;;;15.65;9.98;;;;;;;1.90;75.59;93909.56;5076710;28;20040;-40
2021/12/18 09:38:07;;;;;;;12.55;7.35;;;;;;;1.89;76.14;93910.78;5075980;28;20033;-46
2021/12/18 09:40:33;;;;;;;5.95;4.97;;;;;;;1.86;76.01;93902.81;5075900;28;20028;-42
2021/12/18 09:42:59;;;;;;;9.43;6.38;;;;;;;1.83;75.78;93909.22;5077155;28;20020;-40
2021/12/18 09:45:25;;;;;;;15.25;7.40;;;;;;;1.95;75.82;93905.38;5075249;28;20502;-44
2021/12/18 09:47:51;;;;;;;9.50;5.72;;;;;;;1.99;75.16;93908.63;5074355;28;20150;-44
2021/12/18 09:50:19;;;;;;;9.77;6.22;;;;;;;1.98;74.43;93909.84;5077055;28;20490;-47
2021/12/18 09:52:44;;;;;;;9.83;6.57;;;;;;;1.79;73.09;93911.41;5078344;28;20548;-46
2021/12/18 09:55:11;;;;;;;14.95;8.82;;;;;;;1.86;74.33;93909.03;5077199;28;20085;-47
2021/12/18 09:57:37;;;;;;;12.75;7.30;;;;;;;1.88;74.00;93892.97;5076252;28;20417;-48
2021/12/18 10:00:07;;;;;;;12.52;7.65;;;;;;;1.81;73.70;93904.28;5075719;28;20099;-48
2021/12/18 10:02:32;;;;;;;22.20;9.80;;;;;;;1.78;74.15;93901.75;5075885;28;20028;-44
2021/12/18 10:04:58;;;;;;;9.20;6.75;;;;;;;1.73;73.32;93899.75;5076614;28;20047;-45
2021/12/18 10:07:25;;;;;;;9.07;6.65;;;;;;;1.71;74.34;93900.19;5076556;28;20039;-45
2021/12/18 10:09:57;;;;;;;12.82;7.97;;;;;;;1.83;74.07;93892.88;5074262;28;20032;-48
2021/12/18 10:12:33;;;;;;;12.73;7.28;;;;;;;2.00;74.24;93882.88;5073619;28;20402;-49
2021/12/18 10:15:01;;;;;;;11.40;6.68;;;;;;;2.54;72.38;93900.13;5075838;28;20035;-45
2021/12/18 10:17:34;;;;;;;11.45;6.10;;;;;;;2.92;70.56;93889.44;5074729;28;20031;-44
2021/12/18 10:20:09;;;;;;;11.70;7.38;;;;;;;3.01;69.83;93886.50;5075477;28;20493;-44
2021/12/18 10:23:08;;;;;;;13.88;7.63;;;;;;;2.86;69.04;93885.94;5075719;28;20036;-45
2021/12/18 10:25:38;;;;;;;15.30;8.10;;;;;;;2.39;70.39;93889.38;5073385;28;20517;-44
2021/12/18 10:28:18;;;;;;;8.93;5.55;;;;;;;2.21;71.25;93887.00;5074978;28;20064;-47
2021/12/18 10:30:51;;;;;;;8.88;7.20;;;;;;;2.25;71.70;93895.72;5076291;28;20158;-50
2021/12/18 10:33:17;;;;;;;11.23;7.57;;;;;;;2.31;72.45;93899.25;5074090;28;20036;-48
2021/12/18 10:35:55;;;;;;;10.80;7.22;;;;;;;2.31;73.26;93899.25;5074006;28;20529;-41
2021/12/18 10:38:49;;;;;;;16.40;8.05;;;;;;;2.57;72.30;93888.25;5075533;28;20031;-47
2021/12/18 10:41:41;;;;;;;10.20;5.53;;;;;;;2.88;71.21;93890.94;5076522;28;20111;-51
2021/12/18 10:44:09;;;;;;;10.90;6.22;;;;;;;3.11;69.31;93884.31;5074784;28;20540;-44
2021/12/18 10:46:39;;;;;;;11.88;6.60;;;;;;;3.34;68.91;93887.88;5075523;28;20064;-45
2021/12/18 10:49:06;;;;;;;10.18;6.53;;;;;;;3.52;68.12;93893.66;5072857;28;20109;-44
2021/12/18 10:51:33;;;;;;;10.45;6.07;;;;;;;3.56;67.47;93885.97;5073221;28;20042;-41
2021/12/18 10:54:05;;;;;;;29.20;17.77;;;;;;;3.52;68.15;93880.00;5074363;28;20074;-43
2021/12/18 10:56:37;;;;;;;25.23;18.58;;;;;;;3.50;68.22;93870.81;5076253;28;20028;-44
2021/12/18 10:59:06;;;;;;;18.73;11.80;;;;;;;3.56;67.94;93863.38;5078067;28;20096;-44
2021/12/18 11:01:32;;;;;;;;;;;;;;;3.76;66.56;93874.84;5073998;28;20508;-40
2021/12/18 11:03:58;;;;;;;30.30;17.48;;;;;;;3.77;66.15;93867.38;5076252;28;20003;-39
2021/12/18 11:06:33;;;;;;;15.73;10.82;;;;;;;3.73;65.54;93875.06;5075327;28;20405;-39
2021/12/18 11:09:11;;;;;;;13.05;8.65;;;;;;;3.71;67.20;93848.25;5076523;28;20154;-44
2021/12/18 11:14:30;;;;;;;12.13;6.22;;;;;;;5.47;63.83;93873.06;5075529;28;20032;-48
2021/12/18 11:16:59;;;;;;;11.48;7.40;;;;;;;7.08;59.33;93863.59;5074199;28;20111;-47
2021/12/18 11:19:28;;;;;;;21.52;14.30;;;;;;;8.32;55.01;93857.44;5077038;28;20020;-49
2021/12/18 11:21:57;;;;;;;7.40;5.93;;;;;;;7.82;53.05;93825.16;5075452;28;20102;-44
2021/12/18 11:24:32;;;;;;;;;;;;;;;7.48;54.07;93857.88;5074745;28;20105;-45
2021/12/18 11:27:03;;;;;;;6.50;4.72;;;;;;;6.63;55.13;93866.03;5079963;28;19935;-41
2021/12/18 11:29:44;;;;;;;7.88;5.15;;;;;;;5.83;58.49;93862.88;5078165;28;20539;-42
2021/12/18 11:32:12;;;;;;;7.68;6.20;;;;;;;5.41;59.94;93858.66;5079353;28;20502;-46
2021/12/18 11:34:38;;;;;;;8.40;6.28;;;;;;;5.21;60.67;93856.25;5079393;28;20052;-44
2021/12/18 11:37:08;;;;;;;7.65;6.03;;;;;;;4.81;62.08;93860.34;5078196;28;20089;-46
2021/12/18 11:39:35;;;;;;;14.55;10.50;;;;;;;4.53;62.55;93854.94;5077639;28;20059;-45
2021/12/18 11:42:01;;;;;;;21.83;16.52;;;;;;;4.12;64.57;93855.97;5078178;28;20627;-43
2021/12/18 11:44:43;;;;;;;16.13;11.98;;;;;;;4.02;64.66;93858.22;5078369;28;20123;-43
2021/12/18 11:47:25;;;;;;;14.70;12.15;;;;;;;4.00;65.62;93860.72;5077521;28;20032;-43
2021/12/18 11:49:53;;;;;;;11.88;8.77;;;;;;;3.97;64.87;93839.09;5077680;28;20082;-42
2021/12/18 11:52:18;;;;;;;13.73;9.27;;;;;;;3.95;63.72;93858.72;5077364;28;20028;-42
2021/12/18 11:54:44;;;;;;;14.90;9.18;;;;;;;3.83;63.87;93860.69;5077687;28;20135;-41
2021/12/18 11:57:13;;;;;;;13.07;6.97;;;;;;;3.65;66.07;93857.69;5079369;28;20410;-41
2021/12/18 11:59:43;;;;;;;15.75;9.45;;;;;;;3.38;65.83;93861.84;5079040;28;20137;-42
2021/12/18 12:02:11;;;;;;;8.07;6.63;;;;;;;3.31;64.04;93856.88;5076615;28;20032;-43
2021/12/18 12:04:58;;;;;;;12.65;6.25;;;;;;;3.33;65.78;93859.09;5080384;28;20027;-45
2021/12/18 12:07:27;;;;;;;13.82;7.28;;;;;;;3.23;66.32;93860.56;5078602;28;20036;-42
2021/12/18 12:10:11;;;;;;;5.95;4.40;;;;;;;2.75;66.09;93853.16;5078383;28;20040;-43
2021/12/18 12:12:50;;;;;;;7.22;4.65;;;;;;;2.62;66.64;93854.84;5076835;28;20044;-42
2021/12/18 12:15:17;;;;;;;6.53;4.50;;;;;;;2.52;65.73;93842.63;5078685;28;20521;-42
2021/12/18 12:17:54;;;;;;;4.68;3.30;;;;;;;2.38;66.92;93841.56;5075790;28;20033;-42
2021/12/18 12:20:50;;;;;;;6.85;3.83;;;;;;;2.46;67.61;93845.34;5077320;28;20036;-41
2021/12/18 12:23:16;;;;;;;27.67;16.00;;;;;;;2.53;68.10;93853.06;5077141;28;20399;-42